sensor_id;sensor_type;location;lat;lon;timestamp;temperature;humidity
65421;DHT22;52028;50.658;14.004;2022-07-29T00:00:40;17.06;64.65
65421;DHT22;52028;50.658;14.004;2022-07-29T00:03:06;17.01;64.21
65421;DHT22;52028;50.658;14.004;2022-07-29T00:05:31;16.91;64.45
65421;DHT22;52028;50.658;14.004;2022-07-29T00:07:57;16.85;64.50
65421;DHT22;52028;50.658;14.004;2022-07-29T00:10:22;16.75;64.60
65421;DHT22;52028;50.658;14.004;2022-07-29T00:12:47;16.69;64.58
65421;DHT22;52028;50.658;14.004;2022-07-29T00:15:13;16.58;65.13
65421;DHT22;52028;50.658;14.004;2022-07-29T00:17:38;16.53;65.59
65421;DHT22;52028;50.658;14.004;2022-07-29T00:20:04;16.46;66.05
65421;DHT22;52028;50.658;14.004;2022-07-29T00:22:30;16.46;65.76
65421;DHT22;52028;50.658;14.004;2022-07-29T00:24:55;16.47;65.65
65421;DHT22;52028;50.658;14.004;2022-07-29T00:27:20;16.47;65.88
65421;DHT22;52028;50.658;14.004;2022-07-29T00:29:46;16.53;65.82
65421;DHT22;52028;50.658;14.004;2022-07-29T00:32:12;16.53;65.86
65421;DHT22;52028;50.658;14.004;2022-07-29T00:34:37;16.47;66.15
65421;DHT22;52028;50.658;14.004;2022-07-29T00:37:21;16.43;66.46
65421;DHT22;52028;50.658;14.004;2022-07-29T00:39:47;16.44;66.52
65421;DHT22;52028;50.658;14.004;2022-07-29T00:42:12;16.34;66.46
65421;DHT22;52028;50.658;14.004;2022-07-29T00:44:39;16.34;67.36
65421;DHT22;52028;50.658;14.004;2022-07-29T00:47:05;16.30;67.99
65421;DHT22;52028;50.658;14.004;2022-07-29T00:49:31;16.30;67.93
65421;DHT22;52028;50.658;14.004;2022-07-29T00:51:57;16.32;67.81
65421;DHT22;52028;50.658;14.004;2022-07-29T00:54:22;16.33;67.62
65421;DHT22;52028;50.658;14.004;2022-07-29T00:56:48;16.33;67.87
65421;DHT22;52028;50.658;14.004;2022-07-29T00:59:14;16.39;67.76
65421;DHT22;52028;50.658;14.004;2022-07-29T01:01:39;16.41;67.55
65421;DHT22;52028;50.658;14.004;2022-07-29T01:04:06;16.41;67.54
65421;DHT22;52028;50.658;14.004;2022-07-29T01:06:32;16.39;67.54
65421;DHT22;52028;50.658;14.004;2022-07-29T01:08:58;16.43;67.46
65421;DHT22;52028;50.658;14.004;2022-07-29T01:11:24;16.34;67.86
65421;DHT22;52028;50.658;14.004;2022-07-29T01:13:51;16.33;68.00
65421;DHT22;52028;50.658;14.004;2022-07-29T01:16:49;16.33;68.05
65421;DHT22;52028;50.658;14.004;2022-07-29T01:30:25;16.04;67.95
65421;DHT22;52028;50.658;14.004;2022-07-29T01:32:56;16.01;68.36
65421;DHT22;52028;50.658;14.004;2022-07-29T01:35:26;15.85;68.72
65421;DHT22;52028;50.658;14.004;2022-07-29T01:38:06;15.91;68.30
65421;DHT22;52028;50.658;14.004;2022-07-29T01:40:37;15.99;67.95
65421;DHT22;52028;50.658;14.004;2022-07-29T01:43:10;16.01;67.61
65421;DHT22;52028;50.658;14.004;2022-07-29T01:45:53;16.04;67.76
65421;DHT22;52028;50.658;14.004;2022-07-29T01:48:23;16.02;67.89
65421;DHT22;52028;50.658;14.004;2022-07-29T01:50:50;16.02;68.21
65421;DHT22;52028;50.658;14.004;2022-07-29T01:53:24;15.98;68.39
65421;DHT22;52028;50.658;14.004;2022-07-29T01:55:51;15.88;68.42
65421;DHT22;52028;50.658;14.004;2022-07-29T01:58:19;15.87;68.44
65421;DHT22;52028;50.658;14.004;2022-07-29T02:00:46;15.87;68.43
65421;DHT22;52028;50.658;14.004;2022-07-29T02:03:13;15.88;67.95
65421;DHT22;52028;50.658;14.004;2022-07-29T02:05:41;15.85;68.36
65421;DHT22;52028;50.658;14.004;2022-07-29T02:08:08;15.82;68.42
65421;DHT22;52028;50.658;14.004;2022-07-29T02:10:35;15.89;68.40
65421;DHT22;52028;50.658;14.004;2022-07-29T02:13:02;15.96;68.70
65421;DHT22;52028;50.658;14.004;2022-07-29T02:15:30;15.96;68.79
65421;DHT22;52028;50.658;14.004;2022-07-29T02:18:07;15.96;68.91
65421;DHT22;52028;50.658;14.004;2022-07-29T02:20:33;15.95;69.12
65421;DHT22;52028;50.658;14.004;2022-07-29T02:23:00;15.92;69.23
65421;DHT22;52028;50.658;14.004;2022-07-29T02:25:26;15.95;69.24
65421;DHT22;52028;50.658;14.004;2022-07-29T02:27:53;15.89;69.67
65421;DHT22;52028;50.658;14.004;2022-07-29T02:30:20;15.99;69.61
65421;DHT22;52028;50.658;14.004;2022-07-29T02:32:48;16.04;69.76
65421;DHT22;52028;50.658;14.004;2022-07-29T02:35:15;15.95;70.03
65421;DHT22;52028;50.658;14.004;2022-07-29T02:37:43;15.95;70.43
65421;DHT22;52028;50.658;14.004;2022-07-29T02:40:11;15.98;70.77
65421;DHT22;52028;50.658;14.004;2022-07-29T02:42:41;15.94;71.15
65421;DHT22;52028;50.658;14.004;2022-07-29T02:45:07;15.84;71.69
65421;DHT22;52028;50.658;14.004;2022-07-29T02:47:40;15.82;71.86
65421;DHT22;52028;50.658;14.004;2022-07-29T02:50:13;15.78;72.72
65421;DHT22;52028;50.658;14.004;2022-07-29T02:53:00;15.91;71.19
65421;DHT22;52028;50.658;14.004;2022-07-29T02:55:30;15.89;70.90
65421;DHT22;52028;50.658;14.004;2022-07-29T02:58:07;15.98;70.51
65421;DHT22;52028;50.658;14.004;2022-07-29T03:00:37;15.92;70.59
65421;DHT22;52028;50.658;14.004;2022-07-29T03:03:08;15.85;70.66
65421;DHT22;52028;50.658;14.004;2022-07-29T03:05:35;15.75;71.69
65421;DHT22;52028;50.658;14.004;2022-07-29T03:08:03;15.81;72.23
65421;DHT22;52028;50.658;14.004;2022-07-29T03:10:30;15.74;72.21
65421;DHT22;52028;50.658;14.004;2022-07-29T03:12:56;15.78;72.27
65421;DHT22;52028;50.658;14.004;2022-07-29T03:15:22;15.87;72.20
65421;DHT22;52028;50.658;14.004;2022-07-29T03:17:49;15.92;72.03
65421;DHT22;52028;50.658;14.004;2022-07-29T03:20:17;15.91;72.30
65421;DHT22;52028;50.658;14.004;2022-07-29T03:22:44;15.84;72.72
65421;DHT22;52028;50.658;14.004;2022-07-29T03:25:13;15.68;73.72
65421;DHT22;52028;50.658;14.004;2022-07-29T03:27:39;15.72;73.27
65421;DHT22;52028;50.658;14.004;2022-07-29T03:30:06;15.78;72.72
65421;DHT22;52028;50.658;14.004;2022-07-29T03:32:31;15.61;72.86
65421;DHT22;52028;50.658;14.004;2022-07-29T03:34:57;15.50;73.08
65421;DHT22;52028;50.658;14.004;2022-07-29T03:37:22;15.67;72.70
65421;DHT22;52028;50.658;14.004;2022-07-29T03:39:49;15.72;71.65
65421;DHT22;52028;50.658;14.004;2022-07-29T03:42:17;15.87;70.97
65421;DHT22;52028;50.658;14.004;2022-07-29T03:44:45;15.89;71.41
65421;DHT22;52028;50.658;14.004;2022-07-29T03:47:13;16.01;71.18
65421;DHT22;52028;50.658;14.004;2022-07-29T03:49:40;15.96;70.73
65421;DHT22;52028;50.658;14.004;2022-07-29T03:52:07;15.85;70.13
65421;DHT22;52028;50.658;14.004;2022-07-29T03:54:33;15.96;70.68
65421;DHT22;52028;50.658;14.004;2022-07-29T03:57:01;16.01;70.45
65421;DHT22;52028;50.658;14.004;2022-07-29T03:59:27;15.94;70.68
65421;DHT22;52028;50.658;14.004;2022-07-29T04:01:53;15.96;70.62
65421;DHT22;52028;50.658;14.004;2022-07-29T04:04:21;15.95;70.62
65421;DHT22;52028;50.658;14.004;2022-07-29T04:06:46;15.95;70.76
65421;DHT22;52028;50.658;14.004;2022-07-29T04:09:12;15.96;70.82
65421;DHT22;52028;50.658;14.004;2022-07-29T04:11:41;16.01;70.81
65421;DHT22;52028;50.658;14.004;2022-07-29T04:14:07;16.10;69.80
65421;DHT22;52028;50.658;14.004;2022-07-29T04:16:32;16.19;68.92
65421;DHT22;52028;50.658;14.004;2022-07-29T04:18:58;16.19;69.03
65421;DHT22;52028;50.658;14.004;2022-07-29T04:21:23;16.30;68.67
65421;DHT22;52028;50.658;14.004;2022-07-29T04:23:49;16.30;68.13
65421;DHT22;52028;50.658;14.004;2022-07-29T04:26:18;16.36;67.99
65421;DHT22;52028;50.658;14.004;2022-07-29T04:28:45;16.37;69.08
65421;DHT22;52028;50.658;14.004;2022-07-29T04:31:11;16.37;69.90
65421;DHT22;52028;50.658;14.004;2022-07-29T04:33:36;16.40;69.50
65421;DHT22;52028;50.658;14.004;2022-07-29T04:36:02;16.36;69.49
65421;DHT22;52028;50.658;14.004;2022-07-29T04:38:27;16.37;69.64
65421;DHT22;52028;50.658;14.004;2022-07-29T04:40:53;16.40;69.39
65421;DHT22;52028;50.658;14.004;2022-07-29T04:43:38;16.39;69.04
65421;DHT22;52028;50.658;14.004;2022-07-29T04:46:06;16.40;68.54
65421;DHT22;52028;50.658;14.004;2022-07-29T04:48:32;16.30;68.72
65421;DHT22;52028;50.658;14.004;2022-07-29T04:50:57;16.29;68.88
65421;DHT22;52028;50.658;14.004;2022-07-29T04:53:23;16.32;68.89
65421;DHT22;52028;50.658;14.004;2022-07-29T04:55:48;16.34;68.92
65421;DHT22;52028;50.658;14.004;2022-07-29T04:58:13;16.51;68.56
65421;DHT22;52028;50.658;14.004;2022-07-29T05:00:39;16.57;68.87
65421;DHT22;52028;50.658;14.004;2022-07-29T05:03:05;16.61;69.10
65421;DHT22;52028;50.658;14.004;2022-07-29T05:05:30;16.71;68.46
65421;DHT22;52028;50.658;14.004;2022-07-29T05:07:56;16.82;67.82
65421;DHT22;52028;50.658;14.004;2022-07-29T05:10:22;16.98;67.79
65421;DHT22;52028;50.658;14.004;2022-07-29T05:12:47;17.02;66.70
65421;DHT22;52028;50.658;14.004;2022-07-29T05:15:12;17.20;65.53
65421;DHT22;52028;50.658;14.004;2022-07-29T05:17:38;17.50;63.99
65421;DHT22;52028;50.658;14.004;2022-07-29T05:20:04;17.74;63.21
65421;DHT22;52028;50.658;14.004;2022-07-29T05:22:30;17.85;62.33
65421;DHT22;52028;50.658;14.004;2022-07-29T05:24:55;17.82;62.59
65421;DHT22;52028;50.658;14.004;2022-07-29T05:27:21;18.06;61.92
65421;DHT22;52028;50.658;14.004;2022-07-29T05:29:47;18.27;61.47
65421;DHT22;52028;50.658;14.004;2022-07-29T05:32:12;18.19;61.70
65421;DHT22;52028;50.658;14.004;2022-07-29T05:34:38;18.12;61.77
65421;DHT22;52028;50.658;14.004;2022-07-29T05:37:03;18.29;61.46
65421;DHT22;52028;50.658;14.004;2022-07-29T05:39:29;18.44;60.66
65421;DHT22;52028;50.658;14.004;2022-07-29T05:41:54;18.29;60.95
65421;DHT22;52028;50.658;14.004;2022-07-29T05:44:20;18.54;60.57
65421;DHT22;52028;50.658;14.004;2022-07-29T05:46:45;18.87;59.67
65421;DHT22;52028;50.658;14.004;2022-07-29T05:49:10;18.76;59.28
65421;DHT22;52028;50.658;14.004;2022-07-29T05:51:36;18.98;58.75
65421;DHT22;52028;50.658;14.004;2022-07-29T05:54:01;19.09;58.42
65421;DHT22;52028;50.658;14.004;2022-07-29T05:56:27;19.16;57.64
65421;DHT22;52028;50.658;14.004;2022-07-29T05:58:52;19.44;56.85
65421;DHT22;52028;50.658;14.004;2022-07-29T06:01:18;19.61;56.04
65421;DHT22;52028;50.658;14.004;2022-07-29T06:03:43;19.64;56.12
65421;DHT22;52028;50.658;14.004;2022-07-29T06:06:09;19.50;56.52
65421;DHT22;52028;50.658;14.004;2022-07-29T06:08:35;19.40;56.48
65421;DHT22;52028;50.658;14.004;2022-07-29T06:11:02;19.60;56.35
65421;DHT22;52028;50.658;14.004;2022-07-29T06:13:27;19.85;55.60
65421;DHT22;52028;50.658;14.004;2022-07-29T06:15:53;20.06;55.21
65421;DHT22;52028;50.658;14.004;2022-07-29T06:18:18;19.99;54.73
65421;DHT22;52028;50.658;14.004;2022-07-29T06:20:46;20.22;54.51
65421;DHT22;52028;50.658;14.004;2022-07-29T06:23:11;20.29;53.76
65421;DHT22;52028;50.658;14.004;2022-07-29T06:25:37;20.39;53.85
65421;DHT22;52028;50.658;14.004;2022-07-29T06:28:03;20.68;52.91
65421;DHT22;52028;50.658;14.004;2022-07-29T06:30:29;20.84;52.40
65421;DHT22;52028;50.658;14.004;2022-07-29T06:32:55;21.07;51.73
65421;DHT22;52028;50.658;14.004;2022-07-29T06:35:20;21.34;51.03
65421;DHT22;52028;50.658;14.004;2022-07-29T06:37:46;21.59;50.36
65421;DHT22;52028;50.658;14.004;2022-07-29T06:40:12;21.74;49.77
65421;DHT22;52028;50.658;14.004;2022-07-29T06:42:56;22.02;48.68
65421;DHT22;52028;50.658;14.004;2022-07-29T06:45:21;22.14;48.00
65421;DHT22;52028;50.658;14.004;2022-07-29T06:47:47;22.37;47.98
65421;DHT22;52028;50.658;14.004;2022-07-29T06:50:13;22.69;46.94
65421;DHT22;52028;50.658;14.004;2022-07-29T06:52:39;23.07;45.94
65421;DHT22;52028;50.658;14.004;2022-07-29T06:55:05;23.17;45.50
65421;DHT22;52028;50.658;14.004;2022-07-29T06:57:30;23.47;45.23
65421;DHT22;52028;50.658;14.004;2022-07-29T06:59:57;23.44;45.42
65421;DHT22;52028;50.658;14.004;2022-07-29T07:02:22;23.62;44.81
65421;DHT22;52028;50.658;14.004;2022-07-29T07:04:48;23.60;44.79
65421;DHT22;52028;50.658;14.004;2022-07-29T07:07:13;23.64;44.37
65421;DHT22;52028;50.658;14.004;2022-07-29T07:09:38;23.61;44.68
65421;DHT22;52028;50.658;14.004;2022-07-29T07:12:04;23.69;44.34
65421;DHT22;52028;50.658;14.004;2022-07-29T07:14:29;23.88;44.31
65421;DHT22;52028;50.658;14.004;2022-07-29T07:16:55;23.85;44.15
65421;DHT22;52028;50.658;14.004;2022-07-29T07:19:20;24.02;43.88
65421;DHT22;52028;50.658;14.004;2022-07-29T07:21:45;23.75;43.94
65421;DHT22;52028;50.658;14.004;2022-07-29T07:24:11;23.94;44.42
65421;DHT22;52028;50.658;14.004;2022-07-29T07:26:36;24.29;44.72
65421;DHT22;52028;50.658;14.004;2022-07-29T07:29:03;24.29;43.09
65421;DHT22;52028;50.658;14.004;2022-07-29T07:31:28;24.03;43.93
65421;DHT22;52028;50.658;14.004;2022-07-29T07:33:53;24.26;44.04
65421;DHT22;52028;50.658;14.004;2022-07-29T07:36:19;24.61;42.32
65421;DHT22;52028;50.658;14.004;2022-07-29T07:38:44;24.63;42.11
65421;DHT22;52028;50.658;14.004;2022-07-29T07:41:10;24.58;41.97
65421;DHT22;52028;50.658;14.004;2022-07-29T07:43:35;24.41;42.05
65421;DHT22;52028;50.658;14.004;2022-07-29T07:46:00;24.46;41.98
65421;DHT22;52028;50.658;14.004;2022-07-29T07:48:26;24.54;41.82
65421;DHT22;52028;50.658;14.004;2022-07-29T07:50:51;24.53;42.28
65421;DHT22;52028;50.658;14.004;2022-07-29T07:53:17;24.39;42.82
65421;DHT22;52028;50.658;14.004;2022-07-29T07:55:43;24.37;42.88
65421;DHT22;52028;50.658;14.004;2022-07-29T07:58:09;24.30;42.81
65421;DHT22;52028;50.658;14.004;2022-07-29T08:00:35;24.34;42.45
65421;DHT22;52028;50.658;14.004;2022-07-29T08:03:00;24.39;42.38
65421;DHT22;52028;50.658;14.004;2022-07-29T08:05:26;24.53;42.31
65421;DHT22;52028;50.658;14.004;2022-07-29T08:07:54;24.56;42.38
65421;DHT22;52028;50.658;14.004;2022-07-29T08:10:20;24.65;41.99
65421;DHT22;52028;50.658;14.004;2022-07-29T08:13:05;24.61;41.76
65421;DHT22;52028;50.658;14.004;2022-07-29T08:15:31;24.81;41.42
65421;DHT22;52028;50.658;14.004;2022-07-29T08:18:00;25.09;41.05
65421;DHT22;52028;50.658;14.004;2022-07-29T08:20:26;25.22;40.60
65421;DHT22;52028;50.658;14.004;2022-07-29T08:22:52;25.43;40.24
65421;DHT22;52028;50.658;14.004;2022-07-29T08:25:19;25.50;39.92
65421;DHT22;52028;50.658;14.004;2022-07-29T08:27:46;25.64;39.47
65421;DHT22;52028;50.658;14.004;2022-07-29T08:30:11;26.00;38.91
65421;DHT22;52028;50.658;14.004;2022-07-29T08:32:37;26.32;38.35
65421;DHT22;52028;50.658;14.004;2022-07-29T08:35:02;26.41;38.16
65421;DHT22;52028;50.658;14.004;2022-07-29T08:37:28;26.60;37.81
65421;DHT22;52028;50.658;14.004;2022-07-29T08:39:53;26.51;37.53
65421;DHT22;52028;50.658;14.004;2022-07-29T08:42:19;26.62;38.37
65421;DHT22;52028;50.658;14.004;2022-07-29T08:44:44;26.52;37.79
65421;DHT22;52028;50.658;14.004;2022-07-29T08:47:13;26.26;38.07
65421;DHT22;52028;50.658;14.004;2022-07-29T08:49:39;26.55;37.62
65421;DHT22;52028;50.658;14.004;2022-07-29T08:52:05;26.81;37.39
65421;DHT22;52028;50.658;14.004;2022-07-29T08:54:31;26.95;36.71
65421;DHT22;52028;50.658;14.004;2022-07-29T08:56:58;27.13;36.45
65421;DHT22;52028;50.658;14.004;2022-07-29T08:59:25;27.40;36.14
65421;DHT22;52028;50.658;14.004;2022-07-29T09:01:52;27.39;36.69
65421;DHT22;52028;50.658;14.004;2022-07-29T09:04:19;27.58;36.06
65421;DHT22;52028;50.658;14.004;2022-07-29T09:06:47;27.81;36.01
65421;DHT22;52028;50.658;14.004;2022-07-29T09:09:13;27.88;35.28
65421;DHT22;52028;50.658;14.004;2022-07-29T09:11:39;27.93;35.55
65421;DHT22;52028;50.658;14.004;2022-07-29T09:14:05;27.71;35.60
65421;DHT22;52028;50.658;14.004;2022-07-29T09:16:54;27.51;36.74
65421;DHT22;52028;50.658;14.004;2022-07-29T09:19:28;27.31;37.22
65421;DHT22;52028;50.658;14.004;2022-07-29T09:21:54;27.30;37.36
65421;DHT22;52028;50.658;14.004;2022-07-29T09:24:23;27.22;37.18
65421;DHT22;52028;50.658;14.004;2022-07-29T09:26:48;27.02;38.01
65421;DHT22;52028;50.658;14.004;2022-07-29T09:29:18;26.92;38.07
65421;DHT22;52028;50.658;14.004;2022-07-29T09:31:46;26.81;38.53
65421;DHT22;52028;50.658;14.004;2022-07-29T09:34:13;26.85;37.92
65421;DHT22;52028;50.658;14.004;2022-07-29T09:36:47;26.88;37.85
65421;DHT22;52028;50.658;14.004;2022-07-29T09:39:14;27.19;37.71
65421;DHT22;52028;50.658;14.004;2022-07-29T09:41:51;27.57;36.60
65421;DHT22;52028;50.658;14.004;2022-07-29T09:44:19;27.57;36.56
65421;DHT22;52028;50.658;14.004;2022-07-29T09:47:02;27.46;37.02
65421;DHT22;52028;50.658;14.004;2022-07-29T09:49:34;27.33;37.17
65421;DHT22;52028;50.658;14.004;2022-07-29T09:52:03;27.54;37.07
65421;DHT22;52028;50.658;14.004;2022-07-29T09:54:29;27.75;36.88
65421;DHT22;52028;50.658;14.004;2022-07-29T09:56:59;27.72;36.88
65421;DHT22;52028;50.658;14.004;2022-07-29T09:59:24;27.71;37.46
65421;DHT22;52028;50.658;14.004;2022-07-29T10:01:51;27.61;37.27
65421;DHT22;52028;50.658;14.004;2022-07-29T10:04:18;27.62;37.67
65421;DHT22;52028;50.658;14.004;2022-07-29T10:07:00;28.03;37.14
65421;DHT22;52028;50.658;14.004;2022-07-29T10:09:26;28.32;36.86
65421;DHT22;52028;50.658;14.004;2022-07-29T10:12:18;28.35;36.74
65421;DHT22;52028;50.658;14.004;2022-07-29T10:14:44;28.24;36.22
65421;DHT22;52028;50.658;14.004;2022-07-29T10:17:10;28.44;36.29
65421;DHT22;52028;50.658;14.004;2022-07-29T10:19:36;28.16;36.70
65421;DHT22;52028;50.658;14.004;2022-07-29T10:22:05;28.24;36.52
65421;DHT22;52028;50.658;14.004;2022-07-29T10:24:31;28.10;36.44
65421;DHT22;52028;50.658;14.004;2022-07-29T10:26:59;27.92;37.17
65421;DHT22;52028;50.658;14.004;2022-07-29T10:29:25;28.03;36.97
65421;DHT22;52028;50.658;14.004;2022-07-29T10:32:51;27.74;37.53
65421;DHT22;52028;50.658;14.004;2022-07-29T10:43:36;28.23;36.95
65421;DHT22;52028;50.658;14.004;2022-07-29T10:46:03;28.05;37.15
65421;DHT22;52028;50.658;14.004;2022-07-29T10:48:29;28.37;36.98
65421;DHT22;52028;50.658;14.004;2022-07-29T10:50:59;28.40;36.77
65421;DHT22;52028;50.658;14.004;2022-07-29T10:53:51;28.29;36.76
65421;DHT22;52028;50.658;14.004;2022-07-29T10:56:29;28.09;37.53
65421;DHT22;52028;50.658;14.004;2022-07-29T10:59:34;28.35;35.91
65421;DHT22;52028;50.658;14.004;2022-07-29T11:07:22;29.33;34.44
65421;DHT22;52028;50.658;14.004;2022-07-29T11:15:11;29.06;34.43
65421;DHT22;52028;50.658;14.004;2022-07-29T11:20:47;28.53;35.29
65421;DHT22;52028;50.658;14.004;2022-07-29T11:23:32;29.13;34.13
65421;DHT22;52028;50.658;14.004;2022-07-29T11:26:19;29.46;34.06
65421;DHT22;52028;50.658;14.004;2022-07-29T11:31:19;29.89;33.82
65421;DHT22;52028;50.658;14.004;2022-07-29T11:39:42;29.50;33.99
65421;DHT22;52028;50.658;14.004;2022-07-29T11:45:02;29.09;34.76
65421;DHT22;52028;50.658;14.004;2022-07-29T11:47:37;29.19;34.51
65421;DHT22;52028;50.658;14.004;2022-07-29T11:50:04;30.22;33.33
65421;DHT22;52028;50.658;14.004;2022-07-29T11:52:38;30.40;32.88
65421;DHT22;52028;50.658;14.004;2022-07-29T11:55:09;30.33;32.92
65421;DHT22;52028;50.658;14.004;2022-07-29T11:57:34;30.15;32.40
65421;DHT22;52028;50.658;14.004;2022-07-29T12:00:01;30.39;32.00
65421;DHT22;52028;50.658;14.004;2022-07-29T12:02:38;30.48;31.12
65421;DHT22;52028;50.658;14.004;2022-07-29T12:05:04;30.04;32.55
65421;DHT22;52028;50.658;14.004;2022-07-29T12:07:31;30.54;32.02
65421;DHT22;52028;50.658;14.004;2022-07-29T12:09:57;30.45;31.71
65421;DHT22;52028;50.658;14.004;2022-07-29T12:12:23;31.02;30.95
65421;DHT22;52028;50.658;14.004;2022-07-29T12:14:49;32.22;29.17
65421;DHT22;52028;50.658;14.004;2022-07-29T12:17:44;31.58;30.29
65421;DHT22;52028;50.658;14.004;2022-07-29T12:20:09;32.33;29.23
65421;DHT22;52028;50.658;14.004;2022-07-29T12:22:38;32.43;29.39
65421;DHT22;52028;50.658;14.004;2022-07-29T12:25:10;32.78;29.11
65421;DHT22;52028;50.658;14.004;2022-07-29T12:27:37;32.68;28.68
65421;DHT22;52028;50.658;14.004;2022-07-29T12:30:14;32.36;29.47
65421;DHT22;52028;50.658;14.004;2022-07-29T12:32:47;32.68;29.24
65421;DHT22;52028;50.658;14.004;2022-07-29T12:35:19;32.85;28.88
65421;DHT22;52028;50.658;14.004;2022-07-29T12:37:47;32.50;29.31
65421;DHT22;52028;50.658;14.004;2022-07-29T12:40:18;32.32;29.60
65421;DHT22;52028;50.658;14.004;2022-07-29T12:43:09;31.86;30.10
65421;DHT22;52028;50.658;14.004;2022-07-29T12:45:38;31.82;30.07
65421;DHT22;52028;50.658;14.004;2022-07-29T12:48:04;31.47;30.78
65421;DHT22;52028;50.658;14.004;2022-07-29T12:50:29;30.43;32.15
65421;DHT22;52028;50.658;14.004;2022-07-29T12:53:08;30.96;31.60
65421;DHT22;52028;50.658;14.004;2022-07-29T12:55:42;31.37;30.79
65421;DHT22;52028;50.658;14.004;2022-07-29T12:58:08;31.57;30.52
65421;DHT22;52028;50.658;14.004;2022-07-29T13:00:33;31.80;30.11
65421;DHT22;52028;50.658;14.004;2022-07-29T13:02:59;32.57;29.00
65421;DHT22;52028;50.658;14.004;2022-07-29T13:05:45;33.39;27.11
65421;DHT22;52028;50.658;14.004;2022-07-29T13:08:15;32.61;28.20
65421;DHT22;52028;50.658;14.004;2022-07-29T13:10:41;31.47;29.90
65421;DHT22;52028;50.658;14.004;2022-07-29T13:13:14;30.95;30.50
65421;DHT22;52028;50.658;14.004;2022-07-29T13:15:42;30.99;31.32
65421;DHT22;52028;50.658;14.004;2022-07-29T13:18:29;31.47;30.25
65421;DHT22;52028;50.658;14.004;2022-07-29T13:20:55;31.54;29.74
65421;DHT22;52028;50.658;14.004;2022-07-29T13:23:20;31.65;29.81
65421;DHT22;52028;50.658;14.004;2022-07-29T13:25:45;31.65;29.57
65421;DHT22;52028;50.658;14.004;2022-07-29T13:28:11;32.49;28.99
65421;DHT22;52028;50.658;14.004;2022-07-29T13:30:37;32.37;28.67
65421;DHT22;52028;50.658;14.004;2022-07-29T13:33:03;32.16;28.87
65421;DHT22;52028;50.658;14.004;2022-07-29T13:35:28;32.44;28.06
65421;DHT22;52028;50.658;14.004;2022-07-29T13:37:54;33.63;27.00
65421;DHT22;52028;50.658;14.004;2022-07-29T13:40:20;36.09;24.06
65421;DHT22;52028;50.658;14.004;2022-07-29T13:42:45;37.65;22.18
65421;DHT22;52028;50.658;14.004;2022-07-29T13:45:10;37.66;22.14
65421;DHT22;52028;50.658;14.004;2022-07-29T13:47:36;39.27;21.23
65421;DHT22;52028;50.658;14.004;2022-07-29T13:50:03;40.28;20.11
65421;DHT22;52028;50.658;14.004;2022-07-29T13:52:29;40.07;20.22
65421;DHT22;52028;50.658;14.004;2022-07-29T13:54:55;38.77;21.31
65421;DHT22;52028;50.658;14.004;2022-07-29T13:57:20;37.96;22.18
65421;DHT22;52028;50.658;14.004;2022-07-29T13:59:46;37.15;22.80
65421;DHT22;52028;50.658;14.004;2022-07-29T14:02:11;37.90;21.97
65421;DHT22;52028;50.658;14.004;2022-07-29T14:04:38;37.94;21.64
65421;DHT22;52028;50.658;14.004;2022-07-29T14:07:03;37.86;22.26
65421;DHT22;52028;50.658;14.004;2022-07-29T14:09:29;39.72;20.34
65421;DHT22;52028;50.658;14.004;2022-07-29T14:11:55;39.52;20.40
65421;DHT22;52028;50.658;14.004;2022-07-29T14:14:21;39.38;20.80
65421;DHT22;52028;50.658;14.004;2022-07-29T14:16:46;39.11;20.80
65421;DHT22;52028;50.658;14.004;2022-07-29T14:19:12;37.97;21.49
65421;DHT22;52028;50.658;14.004;2022-07-29T14:21:37;38.80;21.09
65421;DHT22;52028;50.658;14.004;2022-07-29T14:24:04;39.18;21.08
65421;DHT22;52028;50.658;14.004;2022-07-29T14:26:29;40.28;19.79
65421;DHT22;52028;50.658;14.004;2022-07-29T14:28:54;39.48;20.28
65421;DHT22;52028;50.658;14.004;2022-07-29T14:31:20;40.41;19.35
65421;DHT22;52028;50.658;14.004;2022-07-29T14:33:45;37.87;21.97
65421;DHT22;52028;50.658;14.004;2022-07-29T14:36:11;38.58;21.53
65421;DHT22;52028;50.658;14.004;2022-07-29T14:38:36;37.02;22.39
65421;DHT22;52028;50.658;14.004;2022-07-29T14:41:03;35.91;23.91
65421;DHT22;52028;50.658;14.004;2022-07-29T14:43:28;35.02;24.66
65421;DHT22;52028;50.658;14.004;2022-07-29T14:45:54;33.94;26.17
65421;DHT22;52028;50.658;14.004;2022-07-29T14:48:19;34.74;25.59
65421;DHT22;52028;50.658;14.004;2022-07-29T14:50:44;36.80;23.33
65421;DHT22;52028;50.658;14.004;2022-07-29T14:53:10;37.90;21.97
65421;DHT22;52028;50.658;14.004;2022-07-29T14:55:37;38.29;21.85
65421;DHT22;52028;50.658;14.004;2022-07-29T14:58:02;38.25;21.89
65421;DHT22;52028;50.658;14.004;2022-07-29T15:00:28;39.01;21.11
65421;DHT22;52028;50.658;14.004;2022-07-29T15:02:57;39.52;20.65
65421;DHT22;52028;50.658;14.004;2022-07-29T15:05:23;40.42;19.93
65421;DHT22;52028;50.658;14.004;2022-07-29T15:07:48;41.13;19.43
65421;DHT22;52028;50.658;14.004;2022-07-29T15:10:13;41.71;18.52
65421;DHT22;52028;50.658;14.004;2022-07-29T15:12:39;40.80;19.43
65421;DHT22;52028;50.658;14.004;2022-07-29T15:15:05;40.08;19.71
65421;DHT22;52028;50.658;14.004;2022-07-29T15:17:32;40.68;19.58
65421;DHT22;52028;50.658;14.004;2022-07-29T15:19:57;40.49;19.87
65421;DHT22;52028;50.658;14.004;2022-07-29T15:22:23;41.10;19.59
65421;DHT22;52028;50.658;14.004;2022-07-29T15:24:51;41.30;19.20
65421;DHT22;52028;50.658;14.004;2022-07-29T15:27:17;42.36;18.20
65421;DHT22;52028;50.658;14.004;2022-07-29T15:29:43;42.26;18.39
65421;DHT22;52028;50.658;14.004;2022-07-29T15:32:09;41.02;19.25
65421;DHT22;52028;50.658;14.004;2022-07-29T15:34:35;41.34;19.03
65421;DHT22;52028;50.658;14.004;2022-07-29T15:37:00;41.90;18.72
65421;DHT22;52028;50.658;14.004;2022-07-29T15:39:26;40.93;19.39
65421;DHT22;52028;50.658;14.004;2022-07-29T15:41:51;41.64;19.01
65421;DHT22;52028;50.658;14.004;2022-07-29T15:44:17;41.61;18.98
65421;DHT22;52028;50.658;14.004;2022-07-29T15:46:43;41.19;19.18
65421;DHT22;52028;50.658;14.004;2022-07-29T15:49:27;40.01;20.23
65421;DHT22;52028;50.658;14.004;2022-07-29T15:51:57;40.25;20.15
65421;DHT22;52028;50.658;14.004;2022-07-29T15:54:23;41.15;19.40
65421;DHT22;52028;50.658;14.004;2022-07-29T15:56:49;40.70;19.46
65421;DHT22;52028;50.658;14.004;2022-07-29T15:59:14;40.92;19.42
65421;DHT22;52028;50.658;14.004;2022-07-29T16:01:39;41.11;19.41
65421;DHT22;52028;50.658;14.004;2022-07-29T16:04:05;41.44;19.37